createdAt,value
2018-12-23T00:02:43.374Z,7.90
2018-12-23T00:12:58.568Z,8.98
2018-12-23T00:23:14.018Z,8.97
2018-12-23T00:33:29.409Z,8.53
2018-12-23T00:43:44.240Z,8.57
2018-12-23T00:54:00.138Z,8.10
2018-12-23T01:04:15.751Z,7.73
2018-12-23T01:14:31.344Z,9.63
2018-12-23T01:24:47.080Z,9.07
2018-12-23T01:35:02.677Z,8.87
2018-12-23T01:45:18.148Z,8.83
2018-12-23T01:55:33.876Z,11.47
2018-12-23T02:05:49.440Z,11.30
2018-12-23T02:16:05.310Z,10.33
2018-12-23T02:26:20.510Z,12.07
2018-12-23T02:36:35.334Z,12.30
2018-12-23T02:46:50.898Z,10.75
2018-12-23T02:57:07.152Z,10.73
2018-12-23T03:07:22.169Z,9.93
2018-12-23T03:17:37.068Z,9.03
2018-12-23T03:27:51.950Z,9.20
2018-12-23T03:38:06.686Z,8.97
2018-12-23T03:48:21.542Z,8.33
2018-12-23T03:58:36.135Z,10.20
2018-12-23T04:08:51.738Z,10.00
2018-12-23T04:19:06.611Z,11.43
2018-12-23T04:29:22.317Z,12.60
2018-12-23T04:39:37.952Z,11.87
2018-12-23T04:49:53.611Z,12.70
2018-12-23T05:00:08.375Z,13.07
2018-12-23T05:10:24.079Z,14.70
2018-12-23T05:20:39.656Z,15.40
2018-12-23T05:30:54.586Z,14.20
2018-12-23T05:41:09.322Z,14.23
2018-12-23T05:51:24.041Z,13.40
2018-12-23T06:01:39.722Z,12.90
2018-12-23T06:11:55.194Z,11.73
2018-12-23T06:22:09.934Z,11.03
2018-12-23T06:32:25.070Z,12.77
2018-12-23T06:42:40.821Z,11.40
2018-12-23T06:52:56.457Z,13.33
2018-12-23T07:03:13.021Z,12.85
2018-12-23T07:13:28.790Z,13.40
2018-12-23T07:23:44.613Z,12.27
2018-12-23T07:34:00.193Z,12.20
2018-12-23T07:44:15.566Z,12.07
2018-12-23T07:54:30.745Z,11.38
2018-12-23T08:04:46.497Z,10.47
2018-12-23T08:15:01.231Z,10.97
2018-12-23T08:25:16.423Z,10.40
2018-12-23T08:35:32.425Z,10.50
2018-12-23T08:45:48.030Z,10.60
2018-12-23T08:56:03.900Z,10.67
2018-12-23T09:06:19.986Z,10.30
2018-12-23T09:16:35.865Z,9.43
2018-12-23T09:26:51.529Z,9.27
2018-12-23T09:37:07.208Z,9.63
2018-12-23T09:47:22.744Z,9.20
2018-12-23T09:57:37.683Z,10.43
2018-12-23T10:07:53.664Z,8.50
2018-12-23T10:18:08.653Z,8.40
2018-12-23T10:28:24.414Z,8.05
2018-12-23T10:38:40.036Z,9.15
2018-12-23T10:48:56.568Z,9.87
2018-12-23T10:59:11.754Z,9.07
2018-12-23T11:09:26.738Z,7.95
2018-12-23T11:19:41.480Z,8.00
2018-12-23T11:29:57.084Z,7.80
2018-12-23T11:40:12.737Z,7.97
2018-12-23T11:50:28.107Z,8.83
2018-12-23T12:00:43.835Z,8.53
2018-12-23T12:10:59.217Z,9.17
2018-12-23T12:21:14.041Z,8.60
2018-12-23T12:31:29.746Z,9.40
2018-12-23T12:41:45.478Z,9.60
2018-12-23T12:52:00.195Z,9.37
2018-12-23T13:02:14.844Z,8.93
2018-12-23T13:12:30.587Z,9.07
2018-12-23T13:22:46.405Z,8.83
2018-12-23T13:33:02.658Z,8.87
2018-12-23T13:43:31.105Z,7.90
2018-12-23T13:55:58.511Z,8.43
2018-12-23T14:06:24.582Z,10.70
2018-12-23T14:16:39.452Z,12.70
2018-12-23T14:26:55.052Z,11.80
2018-12-23T14:37:10.692Z,8.93
2018-12-23T14:47:25.497Z,6.77
2018-12-23T14:57:41.039Z,5.83
2018-12-23T15:07:56.594Z,5.03
2018-12-23T15:18:12.052Z,6.70
2018-12-23T15:28:27.771Z,7.50
2018-12-23T15:38:42.586Z,9.67
2018-12-23T15:48:58.336Z,11.20
2018-12-23T15:59:14.098Z,10.50
2018-12-23T16:09:29.806Z,9.00
2018-12-23T16:19:44.675Z,9.57
2018-12-23T16:30:00.259Z,10.17
2018-12-23T16:40:15.002Z,10.55
2018-12-23T16:50:30.936Z,10.23
2018-12-23T17:00:46.464Z,11.30
2018-12-23T17:11:02.112Z,11.13
2018-12-23T17:21:17.901Z,11.78
2018-12-23T17:31:33.421Z,13.17
2018-12-23T17:41:49.072Z,14.30
2018-12-23T17:52:04.709Z,14.23
2018-12-23T18:02:20.331Z,15.23
2018-12-23T18:12:36.014Z,16.43
2018-12-23T18:22:51.453Z,17.70
2018-12-23T18:33:06.201Z,20.05
2018-12-23T18:43:21.791Z,28.70
2018-12-23T18:53:37.474Z,29.70
2018-12-23T19:03:53.367Z,73.13
2018-12-23T19:14:14.505Z,24.47
2018-12-23T19:26:38.970Z,18.90
2018-12-23T19:37:16.651Z,15.60
2018-12-23T19:47:37.700Z,12.90
2018-12-23T20:00:01.507Z,11.97
2018-12-23T20:10:25.696Z,11.13
2018-12-23T20:21:31.464Z,7.30
2018-12-23T20:43:13.151Z,3.83
2018-12-23T20:53:45.471Z,4.80
2018-12-23T21:04:28.001Z,5.87
2018-12-23T21:15:10.449Z,6.00
2018-12-23T21:25:52.887Z,5.50
2018-12-23T21:36:24.252Z,6.73
2018-12-23T21:47:06.719Z,9.00
2018-12-23T21:57:49.160Z,8.00
2018-12-23T22:08:31.676Z,5.00
2018-12-23T22:40:54.883Z,6.10
2018-12-23T22:51:18.402Z,6.60
2018-12-23T23:01:49.790Z,6.90
2018-12-23T23:12:13.198Z,7.27
2018-12-23T23:33:16.740Z,8.90
2018-12-23T23:43:40.534Z,8.47
2018-12-23T23:54:04.033Z,7.20
